createdAt,value
2023-01-01T00:00:43.925Z,98599.25
2023-01-01T00:03:10.993Z,98604.81
2023-01-01T00:05:41.398Z,98594.47
2023-01-01T00:08:08.755Z,98601.59
2023-01-01T00:10:35.735Z,98596.16
2023-01-01T00:13:02.681Z,98600.78
2023-01-01T00:15:29.725Z,98599.06
2023-01-01T00:17:57.782Z,98607.38
2023-01-01T00:20:27.635Z,98607.78
2023-01-01T00:22:58.547Z,98606.66
2023-01-01T00:25:25.610Z,98604.84
2023-01-01T00:27:52.649Z,98599.13
2023-01-01T00:30:19.740Z,98605.72
2023-01-01T00:32:54.721Z,98603.72
2023-01-01T00:35:24.986Z,98606.38
2023-01-01T00:37:52.995Z,98607.38
2023-01-01T00:40:20.317Z,98614.25
2023-01-01T00:42:47.630Z,98611.16
2023-01-01T00:45:20.838Z,98616.56
2023-01-01T00:47:50.082Z,98617.13
2023-01-01T00:50:17.596Z,98618.53
2023-01-01T00:52:44.922Z,98612.22
2023-01-01T00:55:12.344Z,98616.41
2023-01-01T00:57:39.701Z,98621.56
2023-01-01T01:00:08.088Z,98617.91
2023-01-01T01:02:35.600Z,98623.66
2023-01-01T01:05:04.725Z,98614.03
2023-01-01T01:07:38.461Z,98612.38
2023-01-01T01:10:06.555Z,98606.78
2023-01-01T01:12:35.373Z,98606.53
2023-01-01T01:15:03.022Z,98608.09
2023-01-01T01:17:30.441Z,98602.31
2023-01-01T01:19:57.775Z,98606.09
2023-01-01T01:22:28.720Z,98609.72
2023-01-01T01:24:57.183Z,98603.13
2023-01-01T01:27:25.266Z,98596.41
2023-01-01T01:29:53.065Z,98593.22
2023-01-01T01:32:20.903Z,98603.63
2023-01-01T01:34:48.468Z,98600.81
2023-01-01T01:37:15.808Z,98604.50
2023-01-01T01:39:43.258Z,98598.97
2023-01-01T01:42:18.013Z,98601.19
2023-01-01T01:44:54.241Z,98607.16
2023-01-01T01:47:40.327Z,98605.38
2023-01-01T01:50:12.185Z,98599.47
2023-01-01T01:52:42.581Z,98604.56
2023-01-01T01:55:10.699Z,98605.97
2023-01-01T01:57:39.813Z,98605.84
2023-01-01T02:00:11.624Z,98613.59
2023-01-01T02:02:51.266Z,98611.34
2023-01-01T02:05:19.773Z,98607.59
2023-01-01T02:07:47.712Z,98616.84
2023-01-01T02:10:15.132Z,98616.31
2023-01-01T02:12:43.597Z,98618.78
2023-01-01T02:15:11.215Z,98608.66
2023-01-01T02:17:52.889Z,98623.78
2023-01-01T02:20:32.096Z,98628.28
2023-01-01T02:23:16.181Z,98628.97
2023-01-01T02:26:10.731Z,98622.28
2023-01-01T02:28:48.459Z,98623.28
2023-01-01T02:31:23.177Z,98622.59
2023-01-01T02:33:52.592Z,98624.84
2023-01-01T02:36:21.243Z,98625.13
2023-01-01T02:38:51.704Z,98625.97
2023-01-01T02:41:26.479Z,98623.44
2023-01-01T02:43:54.186Z,98625.56
2023-01-01T02:48:54.245Z,98632.28
2023-01-01T02:51:33.392Z,98632.38
2023-01-01T02:54:08.919Z,98636.75
2023-01-01T02:57:04.686Z,98652.28
2023-01-01T03:00:14.994Z,98645.34
2023-01-01T03:02:46.720Z,98641.84
2023-01-01T03:06:05.702Z,98645.03
2023-01-01T03:08:50.148Z,98651.91
2023-01-01T03:11:20.184Z,98651.34
2023-01-01T03:14:29.104Z,98631.59
2023-01-01T03:17:08.553Z,98644.34
2023-01-01T03:19:39.701Z,98637.34
2023-01-01T03:22:17.667Z,98645.88
2023-01-01T03:25:04.480Z,98650.34
2023-01-01T03:27:50.782Z,98644.63
2023-01-01T03:30:20.837Z,98646.72
2023-01-01T03:33:07.864Z,98652.59
2023-01-01T03:36:04.328Z,98656.69
2023-01-01T03:38:39.558Z,98663.66
2023-01-01T03:41:15.123Z,98665.78
2023-01-01T03:43:54.237Z,98671.81
2023-01-01T03:46:24.733Z,98674.44
2023-01-01T03:49:03.244Z,98678.47
2023-01-01T03:52:00.355Z,98677.72
2023-01-01T03:54:55.189Z,98677.91
2023-01-01T03:57:35.565Z,98672.88
2023-01-01T04:00:16.458Z,98663.13
2023-01-01T04:02:53.912Z,98666.47
2023-01-01T04:05:22.159Z,98661.69
2023-01-01T04:10:18.327Z,98656.66
2023-01-01T04:12:51.010Z,98659.31
2023-01-01T04:15:19.750Z,98660.00
2023-01-01T04:17:47.226Z,98660.00
2023-01-01T04:20:15.076Z,98664.03
2023-01-01T04:22:42.972Z,98662.91
2023-01-01T04:25:11.604Z,98659.84
2023-01-01T04:27:39.271Z,98663.09
2023-01-01T04:30:08.818Z,98657.91
2023-01-01T04:32:36.384Z,98644.34
2023-01-01T04:35:03.878Z,98640.41
2023-01-01T04:37:31.179Z,98644.47
2023-01-01T04:39:58.524Z,98642.25
2023-01-01T04:42:25.823Z,98642.75
2023-01-01T04:44:53.162Z,98646.13
2023-01-01T04:47:22.227Z,98642.50
2023-01-01T04:49:49.548Z,98646.53
2023-01-01T04:52:16.874Z,98636.19
2023-01-01T04:54:44.212Z,98633.69
2023-01-01T04:57:11.615Z,98633.84
2023-01-01T04:59:39.051Z,98645.03
2023-01-01T05:02:06.881Z,98646.44
2023-01-01T05:04:34.358Z,98647.69
2023-01-01T05:07:01.763Z,98648.81
2023-01-01T05:09:29.157Z,98656.47
2023-01-01T05:11:56.550Z,98655.69
2023-01-01T05:14:23.928Z,98659.59
2023-01-01T05:16:51.356Z,98659.47
2023-01-01T05:19:18.774Z,98675.00
2023-01-01T05:21:46.581Z,98676.00
2023-01-01T05:24:14.119Z,98685.63
2023-01-01T05:26:44.355Z,98682.97
2023-01-01T05:29:16.667Z,98678.22
2023-01-01T05:31:45.500Z,98666.72
2023-01-01T05:34:12.942Z,98675.84
2023-01-01T05:36:40.463Z,98672.06
2023-01-01T05:39:09.282Z,98679.09
2023-01-01T05:41:37.253Z,98674.88
2023-01-01T05:44:09.042Z,98683.41
2023-01-01T05:46:37.006Z,98680.84
2023-01-01T05:49:04.685Z,98684.41
2023-01-01T05:54:01.481Z,98679.91
2023-01-01T05:56:29.006Z,98670.53
2023-01-01T05:58:56.910Z,98684.41
2023-01-01T06:01:26.278Z,98694.75
2023-01-01T06:03:54.991Z,98690.69
2023-01-01T06:06:24.885Z,98690.16
2023-01-01T06:08:57.421Z,98688.03
2023-01-01T06:11:25.423Z,98679.34
2023-01-01T06:13:54.391Z,98695.47
2023-01-01T06:16:22.222Z,98692.66
2023-01-01T06:18:49.692Z,98689.84
2023-01-01T06:21:19.729Z,98700.78
2023-01-01T06:23:47.339Z,98683.28
2023-01-01T06:26:17.648Z,98693.66
2023-01-01T06:28:45.757Z,98699.78
2023-01-01T06:31:16.683Z,98705.81
2023-01-01T06:33:44.530Z,98705.81
2023-01-01T06:36:14.417Z,98709.88
2023-01-01T06:38:44.092Z,98709.19
2023-01-01T06:41:13.528Z,98702.16
2023-01-01T06:43:41.356Z,98711.84
2023-01-01T06:46:16.557Z,98715.91
2023-01-01T06:48:44.646Z,98726.38
2023-01-01T06:51:19.500Z,98714.63
2023-01-01T06:53:47.808Z,98716.06
2023-01-01T06:56:15.494Z,98716.16
2023-01-01T06:58:42.962Z,98725.97
2023-01-01T07:01:12.672Z,98729.63
2023-01-01T07:03:40.996Z,98725.53
2023-01-01T07:06:09.280Z,98721.38
2023-01-01T07:08:37.221Z,98714.50
2023-01-01T07:11:06.129Z,98724.31
2023-01-01T07:13:33.604Z,98717.59
2023-01-01T07:16:03.393Z,98725.00
2023-01-01T07:18:34.247Z,98728.38
2023-01-01T07:21:03.245Z,98722.09
2023-01-01T07:23:34.313Z,98724.34
2023-01-01T07:26:01.765Z,98729.69
2023-01-01T07:28:29.867Z,98731.22
2023-01-01T07:30:57.467Z,98728.78
2023-01-01T07:33:25.114Z,98735.41
2023-01-01T07:35:52.559Z,98743.81
2023-01-01T07:38:19.933Z,98734.41
2023-01-01T07:40:47.246Z,98746.19
2023-01-01T07:43:14.632Z,98752.50
2023-01-01T07:45:42.249Z,98754.28
2023-01-01T07:48:13.934Z,98762.28
2023-01-01T07:50:42.749Z,98764.28
2023-01-01T07:53:10.070Z,98768.06
2023-01-01T07:55:37.825Z,98761.44
2023-01-01T07:58:05.247Z,98771.81
2023-01-01T08:00:32.749Z,98776.88
2023-01-01T08:03:00.221Z,98772.66
2023-01-01T08:05:27.731Z,98780.09
2023-01-01T08:07:55.303Z,98778.13
2023-01-01T08:10:23.146Z,98779.38
2023-01-01T08:12:50.542Z,98782.88
2023-01-01T08:15:18.023Z,98776.84
2023-01-01T08:17:47.295Z,98790.31
2023-01-01T08:20:15.243Z,98790.44
2023-01-01T08:22:42.586Z,98802.94
2023-01-01T08:25:10.287Z,98804.75
2023-01-01T08:27:38.191Z,98816.13
2023-01-01T08:30:06.059Z,98808.97
2023-01-01T08:32:33.411Z,98814.59
2023-01-01T08:35:00.769Z,98809.56
2023-01-01T08:37:28.209Z,98811.09
2023-01-01T08:39:55.621Z,98822.00
2023-01-01T08:42:23.016Z,98821.88
2023-01-01T08:44:50.381Z,98823.28
2023-01-01T08:47:22.466Z,98824.41
2023-01-01T08:49:50.147Z,98829.72
2023-01-01T08:52:17.805Z,98824.81
2023-01-01T08:54:45.546Z,98833.34
2023-01-01T08:57:13.495Z,98838.38
2023-01-01T08:59:40.823Z,98834.72
2023-01-01T09:02:08.534Z,98835.00
2023-01-01T09:04:36.160Z,98834.28
2023-01-01T09:07:03.596Z,98836.03
2023-01-01T09:09:31.788Z,98833.81
2023-01-01T09:12:04.124Z,98835.63
2023-01-01T09:14:32.969Z,98829.78
2023-01-01T09:17:00.407Z,98829.91
2023-01-01T09:19:27.996Z,98839.94
2023-01-01T09:21:55.440Z,98834.69
2023-01-01T09:24:22.829Z,98829.97
2023-01-01T09:26:50.509Z,98833.72
2023-01-01T09:29:18.726Z,98831.41
2023-01-01T09:31:46.689Z,98839.25
2023-01-01T09:34:14.206Z,98839.88
2023-01-01T09:36:41.955Z,98843.44
2023-01-01T09:39:12.986Z,98840.47
2023-01-01T09:42:03.156Z,98837.41
2023-01-01T09:44:49.357Z,98835.56
2023-01-01T09:47:37.092Z,98836.06
2023-01-01T09:50:14.301Z,98837.59
2023-01-01T09:52:53.922Z,98832.44
2023-01-01T09:55:24.886Z,98836.13
2023-01-01T09:57:52.514Z,98832.94
2023-01-01T10:00:20.359Z,98841.50
2023-01-01T10:02:56.707Z,98833.78
2023-01-01T10:05:49.289Z,98826.88
2023-01-01T10:08:47.478Z,98826.09
2023-01-01T10:11:33.603Z,98824.88
2023-01-01T10:14:14.079Z,98830.53
2023-01-01T10:16:46.170Z,98822.59
2023-01-01T10:19:26.403Z,98832.19
2023-01-01T10:21:57.230Z,98844.34
2023-01-01T10:24:44.004Z,98821.72
2023-01-01T10:27:26.433Z,98821.06
2023-01-01T10:29:59.556Z,98827.66
2023-01-01T10:32:36.351Z,98825.03
2023-01-01T10:35:18.858Z,98827.38
2023-01-01T10:37:46.325Z,98824.34
2023-01-01T10:40:24.709Z,98828.16
2023-01-01T10:42:53.962Z,98816.81
2023-01-01T10:45:36.670Z,98818.38
2023-01-01T10:48:21.519Z,98811.09
2023-01-01T10:50:53.606Z,98814.63
2023-01-01T10:53:41.901Z,98826.84
2023-01-01T10:56:18.018Z,98826.34
2023-01-01T10:58:57.523Z,98817.31
2023-01-01T11:01:28.545Z,98822.16
2023-01-01T11:03:59.089Z,98826.47
2023-01-01T11:06:37.243Z,98818.00
2023-01-01T11:09:07.141Z,98814.47
2023-01-01T11:11:45.810Z,98819.94
2023-01-01T11:14:21.701Z,98814.72
2023-01-01T11:16:50.109Z,98814.31
2023-01-01T11:19:27.779Z,98808.88
2023-01-01T11:21:55.312Z,98804.94
2023-01-01T11:24:30.504Z,98788.47
2023-01-01T11:27:21.864Z,98793.84
2023-01-01T11:29:51.336Z,98784.31
2023-01-01T11:32:22.962Z,98783.94
2023-01-01T11:35:00.375Z,98786.63
2023-01-01T11:37:33.103Z,98785.00
2023-01-01T11:40:01.696Z,98783.44
2023-01-01T11:42:31.289Z,98774.00
2023-01-01T11:45:02.105Z,98773.66
2023-01-01T11:47:38.373Z,98769.03
2023-01-01T11:50:33.808Z,98767.53
2023-01-01T11:53:28.064Z,98766.53
2023-01-01T11:56:15.759Z,98770.72
2023-01-01T11:58:51.082Z,98768.34
2023-01-01T12:01:51.027Z,98771.00
2023-01-01T12:04:31.774Z,98766.75
2023-01-01T12:07:11.893Z,98754.13
2023-01-01T12:10:04.597Z,98761.34
2023-01-01T12:12:57.968Z,98748.44
2023-01-01T12:15:38.861Z,98754.31
2023-01-01T12:18:25.098Z,98739.16
2023-01-01T12:21:02.102Z,98741.44
2023-01-01T12:23:31.413Z,98730.97
2023-01-01T12:26:16.398Z,98731.72
2023-01-01T12:29:15.409Z,98724.09
2023-01-01T12:32:29.513Z,98718.56
2023-01-01T12:34:59.843Z,98722.28
2023-01-01T12:38:02.251Z,98724.44
2023-01-01T12:40:35.401Z,98721.34
2023-01-01T12:43:25.226Z,98720.75
2023-01-01T12:46:43.271Z,98718.97
2023-01-01T12:49:22.364Z,98710.06
2023-01-01T12:52:09.094Z,98705.22
2023-01-01T12:54:56.327Z,98707.25
2023-01-01T12:57:41.086Z,98707.78
2023-01-01T13:00:17.258Z,98699.09
2023-01-01T13:02:56.762Z,98705.00
2023-01-01T13:05:40.161Z,98702.06
2023-01-01T13:08:08.131Z,98710.94
2023-01-01T13:10:40.623Z,98708.25
2023-01-01T13:13:08.282Z,98701.13
2023-01-01T13:15:38.665Z,98705.06
2023-01-01T13:18:08.368Z,98716.09
2023-01-01T13:20:42.321Z,98709.75
2023-01-01T13:23:31.543Z,98717.91
2023-01-01T13:26:20.771Z,98708.53
2023-01-01T13:28:59.431Z,98699.03
2023-01-01T13:31:38.435Z,98712.94
2023-01-01T13:34:30.302Z,98710.06
2023-01-01T13:37:23.710Z,98706.31
2023-01-01T13:39:55.448Z,98705.66
2023-01-01T13:42:57.390Z,98697.75
2023-01-01T13:46:11.051Z,98696.75
2023-01-01T13:48:59.335Z,98701.38
2023-01-01T13:52:07.906Z,98696.63
2023-01-01T13:55:01.906Z,98695.03
2023-01-01T13:58:06.998Z,98692.91
2023-01-01T14:00:55.180Z,98685.47
2023-01-01T14:03:24.175Z,98688.63
2023-01-01T14:05:59.681Z,98679.09
2023-01-01T14:08:35.201Z,98671.06
2023-01-01T14:11:15.904Z,98667.56
2023-01-01T14:13:43.316Z,98671.41
2023-01-01T14:16:13.884Z,98674.75
2023-01-01T14:18:48.094Z,98679.75
2023-01-01T14:21:21.277Z,98680.69
2023-01-01T14:24:08.849Z,98681.50
2023-01-01T14:26:38.502Z,98684.78
2023-01-01T14:29:14.738Z,98686.94
2023-01-01T14:31:44.918Z,98688.97
2023-01-01T14:34:27.956Z,98688.41
2023-01-01T14:37:01.587Z,98696.38
2023-01-01T14:39:34.632Z,98695.84
2023-01-01T14:42:21.873Z,98699.72
2023-01-01T14:44:50.716Z,98699.28
2023-01-01T14:47:35.033Z,98691.38
2023-01-01T14:50:23.996Z,98690.44
2023-01-01T14:52:56.296Z,98687.72
2023-01-01T14:55:26.592Z,98697.50
2023-01-01T14:57:59.162Z,98690.84
2023-01-01T15:00:31.482Z,98696.81
2023-01-01T15:03:28.131Z,98693.56
2023-01-01T15:06:03.388Z,98686.28
2023-01-01T15:08:30.772Z,98696.81
2023-01-01T15:10:57.995Z,98694.22
2023-01-01T15:13:27.796Z,98695.66
2023-01-01T15:15:57.516Z,98697.63
2023-01-01T15:18:42.455Z,98693.56
2023-01-01T15:21:16.566Z,98694.84
2023-01-01T15:23:56.126Z,98690.00
2023-01-01T15:26:43.374Z,98692.28
2023-01-01T15:29:17.921Z,98690.59
2023-01-01T15:31:50.189Z,98689.41
2023-01-01T15:34:27.825Z,98683.66
2023-01-01T15:36:57.337Z,98681.84
2023-01-01T15:39:24.420Z,98678.38
2023-01-01T15:41:52.704Z,98683.00
2023-01-01T15:44:36.446Z,98698.53
2023-01-01T15:47:14.350Z,98686.06
2023-01-01T15:49:41.462Z,98685.38
2023-01-01T15:52:27.023Z,98689.03
2023-01-01T15:54:54.142Z,98695.47
2023-01-01T15:57:23.738Z,98695.72
2023-01-01T15:59:53.679Z,98695.28
2023-01-01T16:02:33.416Z,98684.38
2023-01-01T16:05:00.730Z,98687.69
2023-01-01T16:07:28.175Z,98690.06
2023-01-01T16:09:58.174Z,98694.47
2023-01-01T16:12:25.649Z,98696.69
2023-01-01T16:14:53.090Z,98681.06
2023-01-01T16:17:21.235Z,98689.81
2023-01-01T16:19:49.328Z,98677.94
2023-01-01T16:22:18.160Z,98679.88
2023-01-01T16:24:45.755Z,98687.56
2023-01-01T16:27:13.287Z,98677.22
2023-01-01T16:29:43.415Z,98675.34
2023-01-01T16:32:16.943Z,98673.78
2023-01-01T16:34:44.627Z,98667.16
2023-01-01T16:37:11.955Z,98663.22
2023-01-01T16:39:39.315Z,98663.72
2023-01-01T16:42:08.583Z,98662.84
2023-01-01T16:44:38.703Z,98661.81
2023-01-01T16:47:06.059Z,98663.78
2023-01-01T16:49:33.440Z,98661.41
2023-01-01T16:52:00.702Z,98654.63
2023-01-01T16:54:28.211Z,98658.88
2023-01-01T16:56:55.794Z,98653.13
2023-01-01T16:59:24.858Z,98651.44
2023-01-01T17:01:52.314Z,98650.38
2023-01-01T17:04:19.640Z,98651.66
2023-01-01T17:06:46.979Z,98655.06
2023-01-01T17:09:15.463Z,98648.09
2023-01-01T17:11:42.839Z,98643.66
2023-01-01T17:14:10.802Z,98641.06
2023-01-01T17:16:39.827Z,98645.44
2023-01-01T17:19:17.541Z,98634.19
2023-01-01T17:21:47.255Z,98636.59
2023-01-01T17:24:16.173Z,98635.03
2023-01-01T17:26:43.665Z,98641.38
2023-01-01T17:29:11.849Z,98636.06
2023-01-01T17:31:39.347Z,98643.38
2023-01-01T17:34:07.206Z,98648.28
2023-01-01T17:36:36.278Z,98652.44
2023-01-01T17:39:03.658Z,98647.34
2023-01-01T17:41:31.108Z,98647.44
2023-01-01T17:43:58.511Z,98647.44
2023-01-01T17:46:28.510Z,98645.28
2023-01-01T17:48:56.625Z,98644.72
2023-01-01T17:51:25.274Z,98651.44
2023-01-01T17:53:52.791Z,98643.81
2023-01-01T17:56:22.177Z,98635.50
2023-01-01T17:58:51.710Z,98640.81
2023-01-01T18:01:22.149Z,98633.13
2023-01-01T18:04:19.751Z,98627.44
2023-01-01T18:06:54.203Z,98625.72
2023-01-01T18:09:22.273Z,98623.91
2023-01-01T18:11:49.278Z,98624.63
2023-01-01T18:14:20.937Z,98625.88
2023-01-01T18:16:49.793Z,98631.50
2023-01-01T18:19:17.157Z,98627.75
2023-01-01T18:21:44.227Z,98621.84
2023-01-01T18:24:15.966Z,98629.25
2023-01-01T18:26:43.469Z,98631.81
2023-01-01T18:29:10.560Z,98623.94
2023-01-01T18:31:37.577Z,98627.97
2023-01-01T18:34:06.663Z,98613.59
2023-01-01T18:36:35.135Z,98624.91
2023-01-01T18:39:09.533Z,98616.41
2023-01-01T18:41:48.536Z,98609.66
2023-01-01T18:44:28.390Z,98610.91
2023-01-01T18:47:04.111Z,98611.97
2023-01-01T18:49:32.615Z,98614.78
2023-01-01T18:52:17.173Z,98614.03
2023-01-01T18:54:44.492Z,98620.16
2023-01-01T18:57:23.643Z,98618.25
2023-01-01T18:59:59.475Z,98605.53
2023-01-01T19:02:42.668Z,98606.09
2023-01-01T19:05:31.636Z,98602.41
2023-01-01T19:08:07.814Z,98596.44
2023-01-01T19:10:40.653Z,98597.13
2023-01-01T19:13:32.932Z,98602.44
2023-01-01T19:16:24.366Z,98599.19
2023-01-01T19:18:52.966Z,98592.47
2023-01-01T19:21:23.784Z,98594.19
2023-01-01T19:23:54.521Z,98591.25
2023-01-01T19:26:28.112Z,98586.91
2023-01-01T19:29:17.188Z,98568.94
2023-01-01T19:31:46.629Z,98575.00
2023-01-01T19:34:13.699Z,98585.41
2023-01-01T19:36:40.792Z,98578.41
2023-01-01T19:39:08.540Z,98576.38
2023-01-01T19:41:36.196Z,98573.28
2023-01-01T19:44:06.073Z,98568.59
2023-01-01T19:46:38.997Z,98572.59
2023-01-01T19:49:06.096Z,98563.56
2023-01-01T19:51:33.020Z,98564.53
2023-01-01T19:53:59.964Z,98557.31
2023-01-01T19:56:27.081Z,98547.38
2023-01-01T19:58:54.041Z,98544.53
2023-01-01T20:01:21.563Z,98544.50
2023-01-01T20:03:54.709Z,98544.53
2023-01-01T20:06:23.473Z,98545.16
2023-01-01T20:08:50.993Z,98543.97
2023-01-01T20:11:17.968Z,98536.34
2023-01-01T20:13:44.925Z,98531.47
2023-01-01T20:16:11.878Z,98513.47
2023-01-01T20:18:38.942Z,98519.38
2023-01-01T20:21:26.591Z,98518.34
2023-01-01T20:23:55.307Z,98539.34
2023-01-01T20:26:23.672Z,98553.69
2023-01-01T20:29:10.081Z,98552.13
2023-01-01T20:31:37.632Z,98556.31
2023-01-01T20:34:05.218Z,98557.81
2023-01-01T20:36:50.581Z,98548.69
2023-01-01T20:39:17.537Z,98549.59
2023-01-01T20:41:44.528Z,98541.91
2023-01-01T20:44:11.858Z,98541.78
2023-01-01T20:46:39.291Z,98535.41
2023-01-01T20:49:06.297Z,98525.41
2023-01-01T20:51:33.727Z,98521.22
2023-01-01T20:54:00.868Z,98515.00
2023-01-01T20:56:27.963Z,98513.75
2023-01-01T20:59:00.084Z,98517.91
2023-01-01T21:01:30.584Z,98522.00
2023-01-01T21:03:57.643Z,98540.25
2023-01-01T21:06:25.046Z,98556.72
2023-01-01T21:08:52.959Z,98549.88
2023-01-01T21:11:20.515Z,98541.38
2023-01-01T21:13:48.129Z,98542.88
2023-01-01T21:16:23.424Z,98538.47
2023-01-01T21:18:51.082Z,98530.28
2023-01-01T21:21:23.362Z,98529.34
2023-01-01T21:23:52.977Z,98520.53
2023-01-01T21:26:31.912Z,98539.25
2023-01-01T21:29:08.418Z,98533.50
2023-01-01T21:31:38.149Z,98544.16
2023-01-01T21:34:23.470Z,98538.97
2023-01-01T21:36:51.135Z,98542.22
2023-01-01T21:39:29.722Z,98549.00
2023-01-01T21:42:09.148Z,98540.88
2023-01-01T21:44:36.078Z,98544.78
2023-01-01T21:47:08.959Z,98545.56
2023-01-01T21:49:37.357Z,98542.13
2023-01-01T21:52:19.254Z,98539.16
2023-01-01T21:54:48.273Z,98539.19
2023-01-01T21:57:19.852Z,98540.44
2023-01-01T21:59:47.533Z,98536.75
2023-01-01T22:02:14.592Z,98544.09
2023-01-01T22:04:49.078Z,98538.78
2023-01-01T22:10:21.577Z,98536.81
2023-01-01T22:12:51.327Z,98545.53
2023-01-01T22:15:39.602Z,98540.19
2023-01-01T22:18:09.583Z,98544.25
2023-01-01T22:20:39.737Z,98543.19
2023-01-01T22:23:42.026Z,98546.16
2023-01-01T22:26:27.802Z,98557.44
2023-01-01T22:29:04.062Z,98553.97
2023-01-01T22:31:33.329Z,98563.69
2023-01-01T22:34:04.404Z,98561.19
2023-01-01T22:36:36.376Z,98570.41
2023-01-01T22:39:13.435Z,98562.47
2023-01-01T22:41:42.291Z,98562.19
2023-01-01T22:44:11.665Z,98560.13
2023-01-01T22:46:42.231Z,98552.81
2023-01-01T22:49:19.962Z,98559.34
2023-01-01T22:51:47.499Z,98555.47
2023-01-01T22:54:14.459Z,98548.75
2023-01-01T22:56:41.402Z,98551.66
2023-01-01T22:59:08.383Z,98550.13
2023-01-01T23:01:35.436Z,98559.19
2023-01-01T23:04:02.508Z,98552.47
2023-01-01T23:06:29.779Z,98549.06
2023-01-01T23:08:57.063Z,98545.09
2023-01-01T23:11:24.325Z,98543.69
2023-01-01T23:14:10.366Z,98549.03
2023-01-01T23:16:37.519Z,98535.97
2023-01-01T23:19:05.418Z,98545.19
2023-01-01T23:21:34.292Z,98541.56
2023-01-01T23:24:04.699Z,98550.00
2023-01-01T23:26:31.933Z,98541.91
2023-01-01T23:28:58.922Z,98541.63
2023-01-01T23:31:28.102Z,98520.91
2023-01-01T23:33:56.527Z,98512.38
2023-01-01T23:36:25.675Z,98495.56
2023-01-01T23:38:52.609Z,98490.06
2023-01-01T23:41:19.582Z,98492.13
2023-01-01T23:43:46.544Z,98498.31
2023-01-01T23:46:14.513Z,98504.41
2023-01-01T23:48:46.512Z,98501.75
2023-01-01T23:51:14.276Z,98504.59
2023-01-01T23:53:41.235Z,98499.38
2023-01-01T23:56:08.312Z,98487.75
2023-01-01T23:58:35.266Z,98495.25
